createdAt,value
2023-05-05T00:02:25.229Z,52.86
2023-05-05T00:04:53.404Z,53.03
2023-05-05T00:07:21.132Z,53.10
2023-05-05T00:09:48.905Z,52.94
2023-05-05T00:12:18.975Z,52.92
2023-05-05T00:14:46.199Z,52.68
2023-05-05T00:17:13.708Z,53.43
2023-05-05T00:19:41.723Z,53.36
2023-05-05T00:22:10.169Z,53.68
2023-05-05T00:24:41.199Z,53.99
2023-05-05T00:27:08.736Z,53.61
2023-05-05T00:29:36.106Z,53.92
2023-05-05T00:32:03.483Z,54.04
2023-05-05T00:34:31.963Z,54.35
2023-05-05T00:37:00.244Z,53.92
2023-05-05T00:39:27.537Z,53.98
2023-05-05T00:41:55.712Z,53.85
2023-05-05T00:44:31.922Z,53.87
2023-05-05T00:47:01.009Z,54.16
2023-05-05T00:49:30.829Z,53.90
2023-05-05T00:51:58.858Z,54.00
2023-05-05T00:54:27.238Z,53.78
2023-05-05T00:56:54.988Z,54.04
2023-05-05T00:59:22.536Z,54.05
2023-05-05T01:01:51.389Z,54.08
2023-05-05T01:04:19.070Z,54.38
2023-05-05T01:06:55.649Z,54.33
2023-05-05T01:09:27.120Z,53.86
2023-05-05T01:12:09.317Z,54.07
2023-05-05T01:14:41.268Z,54.34
2023-05-05T01:17:17.650Z,54.63
2023-05-05T01:19:58.243Z,55.12
2023-05-05T01:22:27.871Z,55.44
2023-05-05T01:25:12.912Z,55.53
2023-05-05T01:27:46.305Z,55.27
2023-05-05T01:30:33.026Z,55.29
2023-05-05T01:33:04.592Z,55.32
2023-05-05T01:35:43.991Z,55.79
2023-05-05T01:38:15.202Z,55.35
2023-05-05T01:40:48.373Z,55.86
2023-05-05T01:43:17.117Z,55.84
2023-05-05T01:45:45.468Z,56.02
2023-05-05T01:48:13.442Z,56.48
2023-05-05T01:50:43.995Z,56.39
2023-05-05T01:53:13.157Z,56.52
2023-05-05T01:55:41.060Z,56.96
2023-05-05T01:58:10.333Z,56.83
2023-05-05T02:00:39.293Z,56.54
2023-05-05T02:03:08.259Z,56.05
2023-05-05T02:05:36.586Z,56.40
2023-05-05T02:08:05.929Z,56.20
2023-05-05T02:10:35.978Z,56.72
2023-05-05T02:13:03.743Z,56.67
2023-05-05T02:15:31.624Z,56.33
2023-05-05T02:17:59.965Z,57.27
2023-05-05T02:20:28.706Z,56.89
2023-05-05T02:22:56.402Z,56.86
2023-05-05T02:25:25.250Z,57.04
2023-05-05T02:27:53.922Z,56.80
2023-05-05T02:30:21.390Z,57.08
2023-05-05T02:32:56.953Z,57.24
2023-05-05T02:35:27.600Z,57.04
2023-05-05T02:38:00.163Z,56.65
2023-05-05T02:40:33.586Z,56.29
2023-05-05T02:43:08.057Z,56.84
2023-05-05T02:45:35.395Z,56.48
2023-05-05T02:48:05.011Z,56.70
2023-05-05T02:50:33.779Z,56.61
2023-05-05T02:53:03.982Z,56.38
2023-05-05T02:55:52.417Z,56.66
2023-05-05T02:58:33.600Z,56.02
2023-05-05T03:01:07.397Z,56.76
2023-05-05T03:03:41.077Z,57.08
2023-05-05T03:06:17.883Z,57.18
2023-05-05T03:08:50.676Z,57.46
2023-05-05T03:11:24.368Z,57.51
2023-05-05T03:14:05.092Z,58.09
2023-05-05T03:16:35.199Z,58.22
2023-05-05T03:19:03.805Z,58.14
2023-05-05T03:21:32.654Z,57.34
2023-05-05T03:24:01.336Z,57.88
2023-05-05T03:26:30.167Z,57.90
2023-05-05T03:28:59.116Z,58.15
2023-05-05T03:31:28.608Z,57.63
2023-05-05T03:33:57.394Z,57.80
2023-05-05T03:36:29.376Z,57.99
2023-05-05T03:38:58.230Z,58.30
2023-05-05T03:41:27.281Z,57.47
2023-05-05T03:43:55.223Z,57.58
2023-05-05T03:46:23.227Z,58.50
2023-05-05T03:48:52.176Z,58.80
2023-05-05T03:51:23.196Z,59.01
2023-05-05T03:53:52.336Z,59.04
2023-05-05T03:56:20.341Z,58.60
2023-05-05T03:58:49.498Z,59.02
2023-05-05T04:01:17.906Z,57.82
2023-05-05T04:03:46.228Z,56.95
2023-05-05T04:06:14.010Z,58.01
2023-05-05T04:08:41.891Z,58.46
2023-05-05T04:11:11.050Z,57.66
2023-05-05T04:13:41.872Z,58.30
2023-05-05T04:16:12.282Z,58.50
2023-05-05T04:18:41.440Z,58.05
2023-05-05T04:21:11.320Z,57.65
2023-05-05T04:23:40.238Z,57.74
2023-05-05T04:26:10.144Z,57.21
2023-05-05T04:28:39.110Z,56.75
2023-05-05T04:31:08.920Z,56.29
2023-05-05T04:33:37.099Z,55.93
2023-05-05T04:36:07.125Z,56.81
2023-05-05T04:38:35.291Z,57.18
2023-05-05T04:41:06.745Z,57.14
2023-05-05T04:43:36.983Z,57.31
2023-05-05T04:46:05.379Z,57.79
2023-05-05T04:48:37.209Z,58.40
2023-05-05T04:51:13.269Z,59.54
2023-05-05T04:53:41.791Z,59.34
2023-05-05T04:56:15.958Z,58.78
2023-05-05T04:58:44.743Z,58.48
2023-05-05T05:01:12.739Z,57.44
2023-05-05T05:03:42.368Z,57.60
2023-05-05T05:06:13.222Z,57.51
2023-05-05T05:08:42.571Z,56.94
2023-05-05T05:11:12.716Z,56.68
2023-05-05T05:13:41.764Z,54.94
2023-05-05T05:16:09.345Z,54.48
2023-05-05T05:18:40.214Z,54.53
2023-05-05T05:21:12.538Z,54.73
2023-05-05T05:23:45.844Z,55.32
2023-05-05T05:26:13.993Z,55.78
2023-05-05T05:28:42.637Z,55.04
2023-05-05T05:31:10.331Z,53.64
2023-05-05T05:33:40.014Z,53.33
2023-05-05T05:36:08.523Z,50.42
2023-05-05T05:38:36.578Z,49.11
2023-05-05T05:41:06.672Z,47.48
2023-05-05T05:43:36.228Z,46.81
2023-05-05T05:46:11.214Z,45.98
2023-05-05T05:48:40.851Z,42.43
2023-05-05T05:51:10.090Z,43.73
2023-05-05T05:53:38.149Z,43.79
2023-05-05T05:56:12.144Z,44.35
2023-05-05T05:58:41.084Z,42.84
2023-05-05T06:01:09.511Z,43.04
2023-05-05T06:03:38.073Z,43.06
2023-05-05T06:06:07.745Z,44.06
2023-05-05T06:08:35.478Z,43.12
2023-05-05T06:11:04.366Z,44.05
2023-05-05T06:13:36.161Z,42.92
2023-05-05T06:16:08.860Z,43.60
2023-05-05T06:18:37.992Z,43.25
2023-05-05T06:21:07.238Z,43.47
2023-05-05T06:23:37.473Z,41.79
2023-05-05T06:26:06.110Z,42.79
2023-05-05T06:28:34.942Z,45.05
2023-05-05T06:31:04.443Z,44.53
2023-05-05T06:33:36.302Z,44.14
2023-05-05T06:36:05.277Z,43.08
2023-05-05T06:38:33.205Z,43.42
2023-05-05T06:41:00.903Z,41.49
2023-05-05T06:43:33.210Z,41.34
2023-05-05T06:46:02.473Z,40.72
2023-05-05T06:48:30.880Z,40.83
2023-05-05T06:50:58.965Z,40.81
2023-05-05T06:53:28.461Z,40.40
2023-05-05T06:55:57.234Z,39.74
2023-05-05T06:58:25.918Z,39.68
2023-05-05T07:00:57.430Z,39.87
2023-05-05T07:03:33.067Z,39.46
2023-05-05T07:06:01.400Z,40.10
2023-05-05T07:08:31.019Z,38.70
2023-05-05T07:11:01.625Z,39.37
2023-05-05T07:13:31.067Z,39.74
2023-05-05T07:15:59.073Z,40.16
2023-05-05T07:18:27.551Z,39.66
2023-05-05T07:20:55.644Z,39.75
2023-05-05T07:23:25.662Z,39.96
2023-05-05T07:25:53.120Z,40.58
2023-05-05T07:28:22.901Z,40.66
2023-05-05T07:30:57.133Z,39.16
2023-05-05T07:33:26.268Z,39.59
2023-05-05T07:35:53.783Z,38.56
2023-05-05T07:38:21.875Z,39.83
2023-05-05T07:40:52.339Z,39.38
2023-05-05T07:43:20.600Z,38.05
2023-05-05T07:45:50.166Z,38.12
2023-05-05T07:48:19.120Z,38.28
2023-05-05T07:50:47.110Z,38.31
2023-05-05T07:53:15.385Z,37.97
2023-05-05T07:55:45.501Z,38.58
2023-05-05T07:58:13.964Z,38.35
2023-05-05T08:00:44.024Z,37.16
2023-05-05T08:03:12.486Z,38.85
2023-05-05T08:05:40.868Z,36.48
2023-05-05T08:08:12.375Z,38.18
2023-05-05T08:10:40.647Z,37.99
2023-05-05T08:13:09.741Z,37.80
2023-05-05T08:15:45.564Z,37.09
2023-05-05T08:18:14.636Z,37.79
2023-05-05T08:20:42.885Z,37.00
2023-05-05T08:23:19.998Z,36.23
2023-05-05T08:25:49.727Z,36.66
2023-05-05T08:28:17.532Z,37.30
2023-05-05T08:30:57.800Z,38.12
2023-05-05T08:33:26.284Z,36.46
2023-05-05T08:35:53.846Z,37.04
2023-05-05T08:38:22.218Z,36.74
2023-05-05T08:40:51.989Z,37.59
2023-05-05T08:43:22.870Z,37.32
2023-05-05T08:45:52.030Z,38.06
2023-05-05T08:48:21.712Z,35.97
2023-05-05T08:50:57.372Z,37.49
2023-05-05T08:53:30.448Z,37.61
2023-05-05T08:56:04.056Z,36.67
2023-05-05T08:58:32.922Z,37.04
2023-05-05T09:01:01.718Z,34.73
2023-05-05T09:03:32.182Z,36.23
2023-05-05T09:06:04.101Z,36.20
2023-05-05T09:08:31.984Z,36.23
2023-05-05T09:11:00.519Z,34.01
2023-05-05T09:13:28.453Z,35.33
2023-05-05T09:15:56.172Z,36.53
2023-05-05T09:18:25.343Z,36.04
2023-05-05T09:20:57.445Z,35.29
2023-05-05T09:23:27.352Z,35.20
2023-05-05T09:26:09.075Z,34.13
2023-05-05T09:28:37.530Z,35.50
2023-05-05T09:31:20.045Z,35.63
2023-05-05T09:33:48.221Z,34.79
2023-05-05T09:36:16.386Z,34.77
2023-05-05T09:39:08.251Z,34.72
2023-05-05T09:41:38.224Z,35.23
2023-05-05T09:44:08.279Z,34.64
2023-05-05T09:46:37.230Z,34.00
2023-05-05T09:49:14.434Z,33.24
2023-05-05T09:51:42.485Z,32.30
2023-05-05T09:54:21.255Z,32.49
2023-05-05T09:56:50.884Z,33.45
2023-05-05T09:59:19.104Z,34.03
2023-05-05T10:01:50.172Z,33.70
2023-05-05T10:04:30.312Z,33.26
2023-05-05T10:06:58.535Z,32.79
2023-05-05T10:09:28.288Z,31.67
2023-05-05T10:12:01.280Z,33.60
2023-05-05T10:14:29.981Z,32.52
2023-05-05T10:16:58.241Z,32.33
2023-05-05T10:19:26.018Z,31.55
2023-05-05T10:21:59.976Z,29.77
2023-05-05T10:24:35.577Z,30.00
2023-05-05T10:27:05.222Z,30.19
2023-05-05T10:29:54.761Z,31.33
2023-05-05T10:32:52.947Z,29.91
2023-05-05T10:35:24.706Z,29.66
2023-05-05T10:37:53.644Z,30.65
2023-05-05T10:40:22.100Z,30.18
2023-05-05T10:42:51.006Z,29.80
2023-05-05T10:45:19.538Z,29.29
2023-05-05T10:47:49.442Z,30.30
2023-05-05T10:50:36.236Z,31.51
2023-05-05T10:53:05.251Z,30.80
2023-05-05T10:55:39.300Z,29.90
2023-05-05T10:58:14.058Z,30.27
2023-05-05T11:00:44.559Z,30.55
2023-05-05T11:03:21.557Z,30.52
2023-05-05T11:06:09.053Z,28.88
2023-05-05T11:08:39.731Z,30.29
2023-05-05T11:11:09.993Z,30.05
2023-05-05T11:13:43.990Z,28.38
2023-05-05T11:16:36.198Z,26.56
2023-05-05T11:19:13.867Z,28.76
2023-05-05T11:21:59.847Z,28.63
2023-05-05T11:24:30.233Z,28.60
2023-05-05T11:26:58.254Z,29.29
2023-05-05T11:29:27.197Z,28.16
2023-05-05T11:32:14.182Z,27.51
2023-05-05T11:34:51.038Z,28.67
2023-05-05T11:37:19.080Z,30.69
2023-05-05T11:39:57.181Z,29.28
2023-05-05T11:42:33.480Z,29.88
2023-05-05T11:45:02.314Z,28.32
2023-05-05T11:47:32.014Z,27.90
2023-05-05T11:50:03.022Z,27.81
2023-05-05T11:52:34.663Z,28.18
2023-05-05T11:55:05.011Z,27.81
2023-05-05T11:57:37.634Z,28.39
2023-05-05T12:00:09.338Z,29.31
2023-05-05T12:02:38.334Z,31.53
2023-05-05T12:05:06.984Z,30.84
2023-05-05T12:07:38.070Z,30.32
2023-05-05T12:10:09.257Z,30.70
2023-05-05T12:12:40.217Z,29.63
2023-05-05T12:15:16.084Z,28.77
2023-05-05T12:20:34.571Z,29.71
2023-05-05T12:23:03.222Z,29.32
2023-05-05T12:25:37.189Z,28.12
2023-05-05T12:28:09.270Z,30.18
2023-05-05T12:30:42.238Z,28.94
2023-05-05T12:33:11.239Z,30.69
2023-05-05T12:35:39.444Z,30.45
2023-05-05T12:38:08.023Z,31.05
2023-05-05T12:40:47.171Z,32.28
2023-05-05T12:43:27.648Z,31.92
2023-05-05T12:46:02.004Z,30.28
2023-05-05T12:48:31.642Z,30.37
2023-05-05T12:51:12.099Z,29.29
2023-05-05T12:53:42.416Z,29.98
2023-05-05T12:56:34.373Z,30.73
2023-05-05T12:59:03.157Z,31.65
2023-05-05T13:01:32.364Z,29.80
2023-05-05T13:04:06.015Z,29.72
2023-05-05T13:06:36.110Z,30.48
2023-05-05T13:09:05.368Z,30.31
2023-05-05T13:11:37.940Z,29.80
2023-05-05T13:14:06.925Z,30.16
2023-05-05T13:16:34.604Z,29.64
2023-05-05T13:19:10.165Z,30.07
2023-05-05T13:21:40.641Z,29.82
2023-05-05T13:24:25.371Z,30.46
2023-05-05T13:26:58.321Z,28.89
2023-05-05T13:29:30.458Z,29.46
2023-05-05T13:32:01.488Z,29.24
2023-05-05T13:34:31.694Z,28.77
2023-05-05T13:37:01.721Z,28.91
2023-05-05T13:39:33.396Z,30.25
2023-05-05T13:42:06.892Z,28.84
2023-05-05T13:44:35.756Z,28.15
2023-05-05T13:47:06.104Z,29.66
2023-05-05T13:49:34.442Z,29.64
2023-05-05T13:52:16.073Z,29.79
2023-05-05T13:54:45.124Z,30.06
2023-05-05T13:57:14.228Z,29.75
2023-05-05T14:01:40.529Z,28.23
2023-05-05T14:04:13.091Z,28.23
2023-05-05T14:06:47.600Z,27.83
2023-05-05T14:09:18.877Z,27.92
2023-05-05T14:11:46.713Z,29.48
2023-05-05T14:14:17.492Z,30.07
2023-05-05T14:16:48.672Z,28.27
2023-05-05T14:19:21.784Z,27.97
2023-05-05T14:21:53.825Z,27.86
2023-05-05T14:24:21.853Z,28.71
2023-05-05T14:26:50.672Z,29.42
2023-05-05T14:29:18.918Z,27.94
2023-05-05T14:31:48.941Z,28.58
2023-05-05T14:34:24.053Z,29.23
2023-05-05T14:36:52.465Z,28.25
2023-05-05T14:39:22.000Z,28.18
2023-05-05T14:42:05.778Z,29.27
2023-05-05T14:44:37.763Z,31.10
2023-05-05T14:47:07.747Z,30.69
2023-05-05T14:49:37.710Z,30.72
2023-05-05T14:52:13.748Z,29.07
2023-05-05T14:57:16.510Z,29.29
2023-05-05T14:59:46.072Z,29.22
2023-05-05T15:02:17.779Z,29.22
2023-05-05T15:04:47.057Z,30.07
2023-05-05T15:07:31.517Z,30.13
2023-05-05T15:09:59.671Z,30.17
2023-05-05T15:12:34.580Z,30.30
2023-05-05T15:15:05.241Z,29.90
2023-05-05T15:17:39.020Z,29.28
2023-05-05T15:20:09.550Z,28.84
2023-05-05T15:22:50.386Z,28.70
2023-05-05T15:27:55.061Z,30.26
2023-05-05T15:30:27.546Z,30.69
2023-05-05T15:32:58.095Z,30.60
2023-05-05T15:35:33.656Z,30.21
2023-05-05T15:38:02.611Z,30.30
2023-05-05T15:40:30.538Z,29.99
2023-05-05T15:43:01.879Z,30.19
2023-05-05T15:45:30.936Z,30.03
2023-05-05T15:48:11.507Z,30.33
2023-05-05T15:50:43.618Z,31.01
2023-05-05T15:53:17.579Z,31.56
2023-05-05T15:55:46.385Z,29.62
2023-05-05T15:58:14.599Z,28.65
2023-05-05T16:00:46.529Z,29.33
2023-05-05T16:03:22.585Z,30.07
2023-05-05T16:05:50.614Z,30.10
2023-05-05T16:08:19.739Z,29.79
2023-05-05T16:10:48.600Z,29.48
2023-05-05T16:13:17.198Z,30.13
2023-05-05T16:15:49.604Z,29.60
2023-05-05T16:18:18.517Z,29.43
2023-05-05T16:20:52.565Z,30.15
2023-05-05T16:23:27.423Z,29.05
2023-05-05T16:28:38.024Z,29.26
2023-05-05T16:31:12.661Z,29.47
2023-05-05T16:33:50.557Z,29.31
2023-05-05T16:36:21.535Z,28.67
2023-05-05T16:38:53.470Z,29.57
2023-05-05T16:41:28.764Z,28.95
2023-05-05T16:44:03.549Z,29.22
2023-05-05T16:46:40.264Z,29.65
2023-05-05T16:49:10.746Z,29.65
2023-05-05T16:51:43.737Z,29.01
2023-05-05T16:54:17.764Z,29.12
2023-05-05T16:56:51.236Z,28.52
2023-05-05T16:59:20.390Z,29.25
2023-05-05T17:01:49.560Z,29.12
2023-05-05T17:04:17.626Z,29.30
2023-05-05T17:06:55.034Z,30.50
2023-05-05T17:09:26.237Z,30.32
2023-05-05T17:12:04.371Z,29.56
2023-05-05T17:14:37.582Z,29.55
2023-05-05T17:17:11.463Z,29.90
2023-05-05T17:19:45.661Z,30.71
2023-05-05T17:22:23.628Z,30.64
2023-05-05T17:24:55.618Z,30.07
2023-05-05T17:27:30.815Z,30.50
2023-05-05T17:29:59.961Z,31.08
2023-05-05T17:32:27.806Z,32.77
2023-05-05T17:34:57.793Z,32.91
2023-05-05T17:37:25.817Z,33.19
2023-05-05T17:40:08.042Z,33.81
2023-05-05T17:45:21.546Z,34.81
2023-05-05T17:47:49.869Z,34.82
2023-05-05T17:52:55.552Z,35.27
2023-05-05T17:55:24.528Z,35.89
2023-05-05T17:57:55.910Z,36.15
2023-05-05T18:00:24.977Z,37.32
2023-05-05T18:02:55.147Z,37.40
2023-05-05T18:05:24.967Z,37.96
2023-05-05T18:07:53.584Z,37.89
2023-05-05T18:10:23.803Z,38.34
2023-05-05T18:12:57.961Z,38.99
2023-05-05T18:15:27.500Z,39.96
2023-05-05T18:17:56.873Z,40.61
2023-05-05T18:20:32.790Z,40.59
2023-05-05T18:23:03.469Z,40.68
2023-05-05T18:25:43.533Z,40.93
2023-05-05T18:28:12.764Z,40.95
2023-05-05T18:30:43.659Z,41.66
2023-05-05T18:35:53.405Z,42.30
2023-05-05T18:38:21.532Z,41.92
2023-05-05T18:40:50.729Z,41.83
2023-05-05T18:43:18.210Z,42.00
2023-05-05T18:45:45.922Z,41.55
2023-05-05T18:48:15.492Z,41.89
2023-05-05T18:50:51.557Z,42.14
2023-05-05T18:53:23.781Z,42.27
2023-05-05T18:55:52.961Z,42.89
2023-05-05T18:58:21.574Z,43.08
2023-05-05T19:00:51.808Z,43.44
2023-05-05T19:03:23.552Z,44.19
2023-05-05T19:05:51.330Z,45.52
2023-05-05T19:08:19.746Z,44.58
2023-05-05T19:10:51.954Z,44.80
2023-05-05T19:13:21.061Z,45.24
2023-05-05T19:15:57.754Z,45.69
2023-05-05T19:18:32.691Z,45.70
2023-05-05T19:21:02.621Z,45.52
2023-05-05T19:23:30.325Z,45.86
2023-05-05T19:25:58.433Z,45.58
2023-05-05T19:28:28.824Z,46.69
2023-05-05T19:31:04.753Z,46.20
2023-05-05T19:33:34.509Z,46.17
2023-05-05T19:36:05.944Z,46.56
2023-05-05T19:38:38.913Z,46.40
2023-05-05T19:41:13.304Z,46.53
2023-05-05T19:43:46.770Z,46.57
2023-05-05T19:46:19.812Z,47.37
2023-05-05T19:48:53.645Z,47.41
2023-05-05T19:51:22.691Z,47.65
2023-05-05T19:53:54.704Z,47.61
2023-05-05T19:56:25.701Z,48.21
2023-05-05T19:59:00.816Z,48.56
2023-05-05T20:01:30.158Z,48.98
2023-05-05T20:04:02.929Z,48.60
2023-05-05T20:14:19.409Z,49.32
2023-05-05T20:16:48.750Z,49.67
2023-05-05T20:19:19.276Z,49.75
2023-05-05T20:21:58.119Z,49.71
2023-05-05T20:24:33.934Z,49.79
2023-05-05T20:27:09.611Z,50.46
2023-05-05T20:29:41.310Z,50.11
2023-05-05T20:32:09.549Z,50.66
2023-05-05T20:34:38.928Z,51.30
2023-05-05T20:37:13.956Z,51.17
2023-05-05T20:39:43.869Z,51.27
2023-05-05T20:42:12.067Z,51.67
2023-05-05T20:44:41.618Z,51.17
2023-05-05T20:47:09.555Z,51.83
2023-05-05T20:49:37.278Z,52.08
2023-05-05T20:52:07.617Z,51.88
2023-05-05T20:54:36.226Z,52.24
2023-05-05T20:57:07.081Z,52.17
2023-05-05T20:59:38.554Z,51.97
2023-05-05T21:02:06.819Z,51.90
2023-05-05T21:04:34.462Z,51.95
2023-05-05T21:07:02.965Z,51.82
2023-05-05T21:09:31.723Z,52.49
2023-05-05T21:12:02.410Z,52.59
2023-05-05T21:14:31.955Z,52.29
2023-05-05T21:17:01.924Z,52.92
2023-05-05T21:19:31.624Z,53.27
2023-05-05T21:22:02.246Z,53.13
2023-05-05T21:24:29.974Z,53.13
2023-05-05T21:27:04.382Z,53.21
2023-05-05T21:29:38.764Z,53.76
2023-05-05T21:32:14.972Z,53.61
2023-05-05T21:34:44.435Z,53.75
2023-05-05T21:37:13.763Z,53.48
2023-05-05T21:39:41.985Z,53.46
2023-05-05T21:42:10.954Z,53.66
2023-05-05T21:44:39.753Z,54.34
2023-05-05T21:47:07.259Z,54.28
2023-05-05T21:49:35.490Z,54.22
2023-05-05T21:52:03.677Z,54.07
2023-05-05T21:54:32.253Z,53.93
2023-05-05T21:57:00.913Z,53.60
2023-05-05T21:59:28.503Z,54.20
2023-05-05T22:01:56.165Z,54.49
2023-05-05T22:04:26.555Z,54.86
2023-05-05T22:06:57.797Z,54.37
2023-05-05T22:09:25.614Z,54.37
2023-05-05T22:11:53.124Z,54.33
2023-05-05T22:14:23.124Z,54.49
2023-05-05T22:16:51.200Z,54.89
2023-05-05T22:19:18.664Z,55.46
2023-05-05T22:21:46.820Z,55.50
2023-05-05T22:24:16.085Z,55.19
2023-05-05T22:26:43.988Z,55.62
2023-05-05T22:29:11.928Z,55.36
2023-05-05T22:31:39.879Z,55.85
2023-05-05T22:34:08.443Z,55.42
2023-05-05T22:36:35.969Z,56.08
2023-05-05T22:39:04.204Z,55.15
2023-05-05T22:41:34.533Z,55.49
2023-05-05T22:44:02.007Z,55.00
2023-05-05T22:46:31.409Z,55.22
2023-05-05T22:48:58.852Z,55.87
2023-05-05T22:51:26.298Z,56.76
2023-05-05T22:53:55.567Z,56.43
2023-05-05T22:56:22.878Z,56.45
2023-05-05T22:58:51.684Z,56.58
2023-05-05T23:01:19.794Z,56.80
2023-05-05T23:03:50.963Z,56.41
2023-05-05T23:06:18.857Z,56.52
2023-05-05T23:08:46.679Z,56.95
2023-05-05T23:11:14.041Z,56.63
2023-05-05T23:13:42.260Z,56.38
2023-05-05T23:16:09.878Z,56.28
2023-05-05T23:18:37.510Z,56.27
2023-05-05T23:21:05.393Z,56.62
2023-05-05T23:23:33.282Z,56.65
2023-05-05T23:26:00.814Z,56.52
2023-05-05T23:28:28.431Z,56.53
2023-05-05T23:30:56.078Z,56.89
2023-05-05T23:33:24.745Z,57.12
2023-05-05T23:35:53.508Z,56.77
2023-05-05T23:38:22.659Z,56.82
2023-05-05T23:40:49.955Z,57.49
2023-05-05T23:43:17.818Z,58.03
2023-05-05T23:45:45.944Z,57.94
2023-05-05T23:48:14.971Z,57.48
2023-05-05T23:50:42.649Z,57.16
2023-05-05T23:53:09.904Z,57.55
2023-05-05T23:55:37.640Z,56.51
2023-05-05T23:58:05.844Z,57.11
